createdAt,value
2022-08-23T00:00:39.376Z,1.80
2022-08-23T00:01:39.429Z,1.90
2022-08-23T00:02:39.909Z,1.90
2022-08-23T00:03:39.414Z,2.10
2022-08-23T00:04:39.429Z,1.80
2022-08-23T00:05:39.437Z,2.10
2022-08-23T00:06:39.663Z,1.80
2022-08-23T00:07:39.575Z,1.90
2022-08-23T00:08:39.475Z,1.80
2022-08-23T00:09:39.487Z,1.70
2022-08-23T00:10:39.505Z,1.70
2022-08-23T00:11:39.511Z,2.00
2022-08-23T00:12:39.526Z,2.00
2022-08-23T00:13:47.535Z,2.00
2022-08-23T00:14:39.556Z,1.80
2022-08-23T00:15:39.771Z,2.00
2022-08-23T00:16:39.574Z,1.80
2022-08-23T00:17:39.591Z,1.80
2022-08-23T00:18:39.602Z,2.00
2022-08-23T00:19:39.611Z,1.60
2022-08-23T00:20:39.624Z,1.80
2022-08-23T00:21:39.639Z,1.70
2022-08-23T00:22:39.651Z,1.70
2022-08-23T00:23:39.661Z,1.80
2022-08-23T00:24:41.049Z,1.90
2022-08-23T00:25:39.696Z,1.70
2022-08-23T00:26:39.702Z,1.70
2022-08-23T00:27:39.712Z,1.90
2022-08-23T00:28:39.724Z,1.80
2022-08-23T00:29:39.738Z,1.80
2022-08-23T00:30:39.751Z,1.80
2022-08-23T00:31:39.763Z,1.90
2022-08-23T00:32:39.774Z,1.80
2022-08-23T00:33:39.793Z,1.80
2022-08-23T00:34:39.822Z,1.60
2022-08-23T00:35:39.811Z,1.60
2022-08-23T00:36:39.829Z,1.70
2022-08-23T00:37:39.859Z,1.70
2022-08-23T00:38:40.337Z,1.60
2022-08-23T00:39:39.980Z,1.70
2022-08-23T00:40:39.877Z,1.70
2022-08-23T00:41:39.898Z,1.80
2022-08-23T00:42:39.899Z,1.90
2022-08-23T00:43:39.911Z,1.60
2022-08-23T00:44:39.923Z,1.70
2022-08-23T00:45:39.936Z,1.70
2022-08-23T00:46:39.951Z,1.80
2022-08-23T00:47:39.959Z,1.60
2022-08-23T00:48:39.974Z,1.70
2022-08-23T00:49:39.986Z,1.80
2022-08-23T00:50:40.000Z,1.40
2022-08-23T00:51:46.892Z,1.80
2022-08-23T00:52:40.022Z,1.70
2022-08-23T00:53:40.034Z,1.70
2022-08-23T00:54:40.047Z,1.80
2022-08-23T00:55:40.065Z,1.80
2022-08-23T00:56:40.071Z,1.80
2022-08-23T00:57:40.085Z,1.60
2022-08-23T00:58:40.098Z,1.70
2022-08-23T00:59:40.110Z,1.60
2022-08-23T01:00:40.122Z,1.70
2022-08-23T01:01:40.239Z,1.40
2022-08-23T01:02:40.152Z,1.80
2022-08-23T01:03:40.159Z,1.70
2022-08-23T01:04:40.171Z,1.90
2022-08-23T01:05:40.185Z,1.70
2022-08-23T01:06:40.196Z,1.70
2022-08-23T01:07:40.207Z,1.50
2022-08-23T01:08:40.223Z,1.60
2022-08-23T01:09:40.232Z,1.60
2022-08-23T01:10:40.244Z,1.50
2022-08-23T01:11:40.258Z,1.50
2022-08-23T01:12:40.270Z,1.60
2022-08-23T01:13:40.485Z,1.40
2022-08-23T01:14:40.296Z,1.50
2022-08-23T01:15:40.305Z,1.70
2022-08-23T01:16:40.318Z,1.60
2022-08-23T01:17:40.330Z,1.60
2022-08-23T01:18:40.347Z,1.60
2022-08-23T01:19:40.354Z,1.50
2022-08-23T01:20:40.368Z,1.60
2022-08-23T01:21:41.392Z,1.50
2022-08-23T01:22:40.595Z,1.50
2022-08-23T01:23:40.406Z,1.50
2022-08-23T01:25:06.210Z,1.50
2022-08-23T01:25:40.430Z,1.50
2022-08-23T01:26:40.441Z,1.60
2022-08-23T01:27:40.458Z,1.50
2022-08-23T01:28:40.466Z,1.60
2022-08-23T01:29:40.477Z,1.60
2022-08-23T01:30:40.490Z,1.50
2022-08-23T01:31:40.503Z,1.40
2022-08-23T01:32:40.518Z,1.40
2022-08-23T01:33:40.527Z,1.60
2022-08-23T01:34:44.714Z,1.60
2022-08-23T01:35:40.551Z,1.50
2022-08-23T01:36:40.766Z,1.60
2022-08-23T01:37:40.578Z,1.50
2022-08-23T01:38:40.993Z,1.60
2022-08-23T01:39:40.635Z,1.50
2022-08-23T01:40:40.613Z,1.40
2022-08-23T01:41:40.632Z,1.30
2022-08-23T01:42:40.639Z,1.40
2022-08-23T01:43:40.649Z,1.50
2022-08-23T01:44:40.664Z,1.40
2022-08-23T01:45:40.674Z,1.50
2022-08-23T01:46:40.687Z,1.70
2022-08-23T01:47:40.698Z,1.50
2022-08-23T01:48:40.711Z,1.50
2022-08-23T01:49:40.723Z,1.30
2022-08-23T01:50:40.738Z,1.60
2022-08-23T01:51:40.747Z,1.70
2022-08-23T01:52:46.751Z,1.50
2022-08-23T01:53:40.771Z,1.50
2022-08-23T01:54:40.784Z,1.60
2022-08-23T01:55:40.794Z,1.60
2022-08-23T01:56:40.809Z,1.60
2022-08-23T01:57:40.821Z,1.50
2022-08-23T01:58:40.835Z,1.60
2022-08-23T01:59:40.846Z,1.50
2022-08-23T02:00:40.858Z,1.30
2022-08-23T02:01:40.946Z,1.50
2022-08-23T02:02:40.881Z,1.60
2022-08-23T02:03:40.894Z,1.30
2022-08-23T02:04:40.906Z,1.50
2022-08-23T02:05:40.965Z,1.60
2022-08-23T02:06:40.930Z,1.40
2022-08-23T02:07:40.944Z,1.50
2022-08-23T02:08:40.956Z,1.40
2022-08-23T02:09:40.967Z,1.40
2022-08-23T02:10:40.979Z,1.60
2022-08-23T02:11:40.996Z,1.50
2022-08-23T02:12:41.003Z,1.50
2022-08-23T02:13:41.016Z,1.60
2022-08-23T02:14:41.029Z,1.30
2022-08-23T02:15:41.040Z,1.50
2022-08-23T02:16:41.052Z,1.50
2022-08-23T02:17:41.064Z,1.50
2022-08-23T02:18:41.077Z,1.60
2022-08-23T02:19:41.094Z,1.40
2022-08-23T02:20:41.101Z,1.60
2022-08-23T02:21:41.114Z,1.60
2022-08-23T02:22:41.126Z,1.40
2022-08-23T02:23:41.137Z,1.50
2022-08-23T02:24:41.148Z,1.50
2022-08-23T02:25:41.163Z,1.60
2022-08-23T02:26:41.173Z,1.50
2022-08-23T02:27:42.980Z,1.40
2022-08-23T02:28:41.197Z,1.60
2022-08-23T02:29:41.210Z,1.60
2022-08-23T02:30:41.222Z,1.60
2022-08-23T02:31:41.234Z,1.50
2022-08-23T02:32:41.245Z,1.60
2022-08-23T02:33:41.260Z,1.60
2022-08-23T02:34:41.271Z,1.50
2022-08-23T02:35:41.283Z,1.70
2022-08-23T02:36:41.295Z,1.50
2022-08-23T02:37:41.307Z,1.70
2022-08-23T02:38:41.319Z,1.50
2022-08-23T02:39:41.384Z,1.60
2022-08-23T02:40:41.343Z,1.70
2022-08-23T02:41:41.354Z,1.90
2022-08-23T02:42:41.367Z,1.60
2022-08-23T02:43:41.379Z,1.50
2022-08-23T02:44:41.391Z,1.60
2022-08-23T02:45:41.405Z,1.60
2022-08-23T02:46:41.417Z,1.60
2022-08-23T02:47:41.427Z,1.60
2022-08-23T02:48:41.439Z,1.60
2022-08-23T02:49:41.452Z,1.50
2022-08-23T02:50:41.464Z,1.60
2022-08-23T02:51:41.476Z,1.60
2022-08-23T02:52:41.488Z,1.60
2022-08-23T02:53:41.501Z,1.60
2022-08-23T02:54:41.512Z,1.70
2022-08-23T02:55:41.524Z,1.60
2022-08-23T02:56:41.537Z,1.60
2022-08-23T02:57:41.549Z,1.80
2022-08-23T02:58:41.562Z,1.60
2022-08-23T02:59:41.574Z,1.50
2022-08-23T03:00:41.584Z,1.70
2022-08-23T03:01:41.597Z,1.70
2022-08-23T03:02:41.674Z,1.50
2022-08-23T03:03:41.619Z,1.70
2022-08-23T03:04:41.633Z,1.60
2022-08-23T03:05:41.647Z,1.80
2022-08-23T03:06:41.657Z,1.60
2022-08-23T03:07:41.670Z,1.80
2022-08-23T03:08:41.682Z,1.90
2022-08-23T03:09:41.692Z,1.80
2022-08-23T03:10:41.707Z,1.60
2022-08-23T03:11:41.716Z,1.50
2022-08-23T03:12:41.728Z,1.60
2022-08-23T03:13:41.743Z,1.90
2022-08-23T03:14:41.753Z,1.50
2022-08-23T03:15:41.764Z,1.70
2022-08-23T03:16:41.779Z,1.70
2022-08-23T03:17:41.790Z,1.70
2022-08-23T03:18:41.802Z,1.60
2022-08-23T03:19:41.812Z,1.90
2022-08-23T03:20:41.824Z,1.70
2022-08-23T03:21:43.320Z,1.50
2022-08-23T03:22:48.476Z,1.70
2022-08-23T03:23:41.861Z,1.50
2022-08-23T03:24:41.886Z,1.70
2022-08-23T03:25:41.886Z,1.60
2022-08-23T03:26:41.898Z,1.70
2022-08-23T03:27:45.007Z,1.80
2022-08-23T03:28:41.922Z,1.60
2022-08-23T03:29:41.933Z,1.70
2022-08-23T03:30:41.948Z,1.70
2022-08-23T03:31:41.990Z,1.80
2022-08-23T03:32:41.970Z,1.80
2022-08-23T03:33:41.983Z,1.80
2022-08-23T03:34:41.994Z,1.80
2022-08-23T03:35:42.004Z,1.80
2022-08-23T03:36:42.019Z,1.70
2022-08-23T03:37:42.031Z,1.80
2022-08-23T03:38:42.043Z,1.70
2022-08-23T03:39:42.094Z,1.80
2022-08-23T03:40:42.065Z,1.70
2022-08-23T03:41:42.079Z,1.50
2022-08-23T03:42:42.092Z,1.70
2022-08-23T03:43:42.101Z,1.70
2022-08-23T03:44:42.113Z,1.80
2022-08-23T03:45:42.126Z,1.80
2022-08-23T03:46:42.139Z,1.80
2022-08-23T03:47:42.149Z,1.90
2022-08-23T03:48:42.161Z,1.80
2022-08-23T03:49:42.173Z,1.80
2022-08-23T03:50:42.189Z,1.70
2022-08-23T03:51:42.197Z,1.90
2022-08-23T03:52:42.209Z,1.80
2022-08-23T03:53:42.220Z,1.90
2022-08-23T03:54:42.238Z,1.80
2022-08-23T03:55:42.840Z,1.90
2022-08-23T03:56:42.262Z,1.80
2022-08-23T03:57:42.269Z,1.90
2022-08-23T03:58:42.282Z,1.80
2022-08-23T03:59:42.292Z,1.90
2022-08-23T04:00:42.306Z,1.70
2022-08-23T04:01:42.416Z,1.80
2022-08-23T04:02:42.329Z,2.00
2022-08-23T04:03:42.341Z,1.80
2022-08-23T04:04:42.352Z,1.90
2022-08-23T04:05:42.364Z,1.80
2022-08-23T04:06:42.376Z,1.90
2022-08-23T04:07:42.387Z,1.70
2022-08-23T04:08:42.401Z,2.10
2022-08-23T04:09:42.412Z,1.90
2022-08-23T04:10:42.424Z,1.90
2022-08-23T04:11:42.437Z,2.00
2022-08-23T04:12:42.448Z,1.90
2022-08-23T04:13:42.663Z,1.90
2022-08-23T04:14:42.473Z,1.80
2022-08-23T04:15:43.493Z,1.60
2022-08-23T04:16:42.495Z,1.90
2022-08-23T04:17:42.511Z,1.80
2022-08-23T04:18:42.520Z,1.90
2022-08-23T04:19:42.531Z,1.80
2022-08-23T04:20:42.544Z,1.70
2022-08-23T04:21:42.555Z,2.00
2022-08-23T04:22:42.570Z,1.90
2022-08-23T04:23:42.578Z,1.90
2022-08-23T04:24:42.591Z,1.80
2022-08-23T04:25:42.606Z,2.00
2022-08-23T04:26:42.615Z,2.00
2022-08-23T04:27:42.628Z,2.10
2022-08-23T04:28:42.638Z,1.70
2022-08-23T04:29:42.650Z,1.80
2022-08-23T04:30:42.664Z,2.00
2022-08-23T04:31:42.675Z,1.90
2022-08-23T04:32:43.497Z,1.90
2022-08-23T04:33:43.103Z,1.80
2022-08-23T04:34:45.318Z,1.80
2022-08-23T04:35:42.723Z,1.80
2022-08-23T04:36:44.856Z,1.80
2022-08-23T04:37:42.746Z,2.00
2022-08-23T04:38:42.759Z,1.80
2022-08-23T04:39:43.170Z,1.90
2022-08-23T04:40:42.783Z,2.00
2022-08-23T04:41:42.795Z,2.10
2022-08-23T04:42:42.806Z,2.00
2022-08-23T04:43:42.818Z,1.90
2022-08-23T04:44:42.836Z,2.00
2022-08-23T04:45:42.841Z,2.10
2022-08-23T04:46:42.854Z,2.10
2022-08-23T04:47:42.863Z,1.90
2022-08-23T04:48:42.877Z,1.80
2022-08-23T04:49:42.889Z,2.00
2022-08-23T04:50:42.901Z,1.80
2022-08-23T04:51:42.914Z,2.00
2022-08-23T04:52:42.924Z,1.90
2022-08-23T04:53:42.936Z,2.00
2022-08-23T04:54:42.947Z,1.80
2022-08-23T04:55:42.958Z,2.00
2022-08-23T04:56:42.972Z,2.00
2022-08-23T04:57:42.985Z,1.70
2022-08-23T04:58:42.998Z,1.70
2022-08-23T04:59:43.006Z,1.80
2022-08-23T05:00:43.085Z,1.90
2022-08-23T05:01:43.034Z,1.90
2022-08-23T05:02:43.774Z,1.80
2022-08-23T05:03:43.055Z,1.70
2022-08-23T05:04:43.074Z,1.90
2022-08-23T05:05:43.080Z,1.70
2022-08-23T05:06:43.092Z,1.80
2022-08-23T05:07:43.304Z,1.80
2022-08-23T05:08:43.113Z,1.80
2022-08-23T05:09:43.128Z,1.80
2022-08-23T05:10:43.137Z,1.70
2022-08-23T05:11:43.160Z,1.90
2022-08-23T05:12:43.161Z,1.80
2022-08-23T05:13:43.173Z,1.70
2022-08-23T05:14:44.341Z,2.00
2022-08-23T05:15:43.196Z,1.90
2022-08-23T05:16:43.207Z,1.70
2022-08-23T05:17:43.220Z,1.80
2022-08-23T05:18:43.237Z,1.60
2022-08-23T05:19:47.027Z,1.80
2022-08-23T05:20:43.255Z,1.60
2022-08-23T05:21:43.268Z,1.70
2022-08-23T05:22:43.279Z,1.60
2022-08-23T05:23:43.291Z,1.70
2022-08-23T05:24:43.303Z,1.90
2022-08-23T05:25:43.315Z,1.80
2022-08-23T05:26:43.331Z,1.80
2022-08-23T05:27:43.339Z,1.80
2022-08-23T05:28:43.349Z,1.80
2022-08-23T05:29:43.362Z,1.80
2022-08-23T05:30:43.374Z,1.70
2022-08-23T05:31:43.386Z,1.90
2022-08-23T05:32:43.395Z,1.80
2022-08-23T05:33:43.410Z,1.70
2022-08-23T05:34:43.423Z,1.90
2022-08-23T05:35:43.434Z,1.70
2022-08-23T05:36:48.123Z,1.90
2022-08-23T05:37:43.457Z,1.90
2022-08-23T05:38:43.469Z,1.80
2022-08-23T05:39:43.519Z,1.70
2022-08-23T05:40:43.492Z,1.60
2022-08-23T05:41:43.504Z,1.70
2022-08-23T05:42:43.517Z,1.60
2022-08-23T05:43:43.528Z,1.60
2022-08-23T05:44:43.539Z,1.60
2022-08-23T05:45:43.574Z,1.90
2022-08-23T05:46:43.610Z,1.90
2022-08-23T05:47:43.573Z,1.80
2022-08-23T05:48:43.586Z,1.70
2022-08-23T05:49:43.597Z,1.70
2022-08-23T05:50:43.612Z,1.70
2022-08-23T05:51:43.622Z,1.70
2022-08-23T05:52:46.753Z,1.60
2022-08-23T05:53:43.648Z,1.70
2022-08-23T05:54:43.656Z,1.70
2022-08-23T05:55:43.669Z,1.80
2022-08-23T05:56:45.175Z,1.90
2022-08-23T05:57:43.694Z,1.80
2022-08-23T05:58:43.704Z,1.90
2022-08-23T05:59:43.715Z,1.80
2022-08-23T06:00:43.814Z,1.70
2022-08-23T06:01:43.742Z,1.90
2022-08-23T06:02:43.750Z,1.80
2022-08-23T06:03:43.762Z,1.80
2022-08-23T06:04:43.774Z,1.60
2022-08-23T06:05:43.785Z,1.80
2022-08-23T06:06:43.801Z,1.80
2022-08-23T06:07:43.809Z,1.90
2022-08-23T06:08:43.821Z,1.50
2022-08-23T06:09:43.834Z,2.00
2022-08-23T06:10:43.844Z,1.80
2022-08-23T06:11:43.856Z,1.90
2022-08-23T06:12:43.869Z,1.80
2022-08-23T06:13:43.987Z,2.00
2022-08-23T06:14:43.893Z,1.90
2022-08-23T06:15:43.906Z,1.90
2022-08-23T06:16:43.915Z,1.80
2022-08-23T06:17:43.927Z,1.70
2022-08-23T06:18:43.941Z,1.80
2022-08-23T06:19:43.951Z,1.90
2022-08-23T06:20:44.060Z,1.90
2022-08-23T06:21:43.974Z,2.00
2022-08-23T06:22:43.988Z,2.00
2022-08-23T06:23:43.996Z,2.30
2022-08-23T06:24:44.010Z,2.00
2022-08-23T06:25:44.024Z,2.10
2022-08-23T06:26:44.034Z,2.10
2022-08-23T06:27:44.045Z,2.10
2022-08-23T06:28:51.054Z,1.90
2022-08-23T06:29:44.069Z,1.90
2022-08-23T06:30:44.170Z,2.10
2022-08-23T06:31:44.092Z,2.10
2022-08-23T06:32:44.135Z,2.20
2022-08-23T06:33:44.142Z,2.20
2022-08-23T06:34:44.130Z,2.30
2022-08-23T06:35:44.138Z,2.10
2022-08-23T06:36:44.150Z,2.10
2022-08-23T06:37:44.164Z,2.20
2022-08-23T06:38:44.174Z,2.30
2022-08-23T06:39:44.313Z,2.20
2022-08-23T06:40:44.198Z,2.20
2022-08-23T06:41:44.211Z,2.40
2022-08-23T06:42:44.225Z,2.00
2022-08-23T06:43:44.232Z,2.20
2022-08-23T06:44:44.244Z,2.10
2022-08-23T06:45:44.257Z,2.30
2022-08-23T06:46:44.297Z,2.60
2022-08-23T06:47:44.280Z,2.20
2022-08-23T06:48:44.292Z,2.20
2022-08-23T06:49:52.597Z,2.10
2022-08-23T06:50:47.889Z,2.20
2022-08-23T06:51:44.325Z,2.20
2022-08-23T06:52:44.337Z,2.50
2022-08-23T06:53:44.352Z,2.30
2022-08-23T06:54:44.363Z,2.20
2022-08-23T06:55:44.374Z,2.30
2022-08-23T06:56:44.385Z,2.30
2022-08-23T06:57:44.400Z,2.50
2022-08-23T06:58:44.410Z,2.20
2022-08-23T06:59:44.421Z,2.20
2022-08-23T07:00:44.493Z,2.50
2022-08-23T07:01:46.210Z,2.60
2022-08-23T07:02:44.484Z,2.40
2022-08-23T07:03:44.468Z,2.30
2022-08-23T07:04:44.477Z,2.50
2022-08-23T07:05:44.491Z,2.60
2022-08-23T07:06:44.504Z,2.70
2022-08-23T07:07:44.841Z,2.30
2022-08-23T07:08:44.527Z,2.50
2022-08-23T07:09:44.537Z,2.50
2022-08-23T07:10:44.550Z,2.50
2022-08-23T07:11:44.562Z,2.40
2022-08-23T07:12:44.572Z,2.50
2022-08-23T07:13:44.585Z,2.50
2022-08-23T07:14:44.597Z,2.70
2022-08-23T07:15:44.659Z,2.70
2022-08-23T07:16:44.620Z,2.80
2022-08-23T07:17:44.632Z,2.60
2022-08-23T07:18:44.643Z,2.50
2022-08-23T07:19:44.656Z,2.70
2022-08-23T07:20:44.667Z,2.80
2022-08-23T07:21:44.678Z,2.60
2022-08-23T07:22:44.689Z,2.60
2022-08-23T07:23:46.518Z,2.70
2022-08-23T07:24:44.713Z,2.50
2022-08-23T07:25:44.724Z,2.90
2022-08-23T07:26:44.736Z,2.90
2022-08-23T07:27:44.748Z,2.80
2022-08-23T07:28:44.759Z,2.60
2022-08-23T07:29:44.774Z,2.60
2022-08-23T07:30:45.531Z,2.80
2022-08-23T07:31:44.870Z,2.80
2022-08-23T07:32:44.807Z,2.80
2022-08-23T07:33:44.820Z,2.70
2022-08-23T07:34:44.831Z,2.90
2022-08-23T07:35:44.843Z,2.70
2022-08-23T07:36:44.854Z,2.70
2022-08-23T07:37:44.866Z,2.80
2022-08-23T07:38:45.429Z,2.90
2022-08-23T07:39:44.940Z,2.80
2022-08-23T07:40:44.900Z,2.90
2022-08-23T07:41:44.912Z,2.90
2022-08-23T07:42:44.924Z,3.00
2022-08-23T07:43:44.936Z,2.70
2022-08-23T07:44:44.947Z,2.90
2022-08-23T07:45:44.958Z,2.90
2022-08-23T07:46:45.007Z,2.90
2022-08-23T07:47:50.091Z,2.80
2022-08-23T07:48:54.071Z,2.70
2022-08-23T07:49:45.007Z,3.20
2022-08-23T07:50:49.974Z,2.70
2022-08-23T07:51:45.027Z,2.80
2022-08-23T07:52:45.042Z,2.70
2022-08-23T07:53:46.185Z,2.80
2022-08-23T07:54:48.258Z,2.70
2022-08-23T07:55:45.076Z,2.80
2022-08-23T07:56:45.088Z,3.00
2022-08-23T07:57:45.099Z,2.90
2022-08-23T07:58:45.111Z,2.90
2022-08-23T07:59:45.121Z,2.80
2022-08-23T08:00:45.134Z,2.80
2022-08-23T08:01:45.224Z,3.00
2022-08-23T08:02:45.224Z,2.90
2022-08-23T08:03:45.170Z,2.80
2022-08-23T08:04:45.280Z,2.90
2022-08-23T08:05:45.193Z,2.90
2022-08-23T08:06:45.206Z,2.90
2022-08-23T08:07:45.223Z,2.90
2022-08-23T08:08:45.230Z,2.70
2022-08-23T08:09:45.239Z,3.00
2022-08-23T08:10:45.252Z,2.80
2022-08-23T08:11:45.265Z,2.70
2022-08-23T08:12:45.273Z,3.00
2022-08-23T08:13:45.285Z,2.80
2022-08-23T08:14:45.297Z,2.70
2022-08-23T08:15:45.338Z,2.90
2022-08-23T08:16:45.322Z,2.90
2022-08-23T08:17:45.335Z,2.70
2022-08-23T08:18:45.344Z,2.80
2022-08-23T08:19:45.356Z,3.00
2022-08-23T08:20:45.368Z,2.70
2022-08-23T08:21:45.379Z,3.00
2022-08-23T08:22:48.001Z,3.00
2022-08-23T08:23:45.403Z,2.80
2022-08-23T08:24:45.414Z,2.80
2022-08-23T08:25:45.427Z,2.80
2022-08-23T08:26:45.439Z,2.80
2022-08-23T08:27:45.449Z,2.90
2022-08-23T08:28:45.460Z,3.00
2022-08-23T08:29:45.472Z,2.70
2022-08-23T08:30:45.486Z,2.90
2022-08-23T08:31:45.585Z,2.90
2022-08-23T08:32:47.457Z,3.10
2022-08-23T08:33:45.520Z,3.00
2022-08-23T08:34:45.532Z,2.90
2022-08-23T08:35:45.543Z,3.20
2022-08-23T08:36:45.560Z,2.80
2022-08-23T08:37:45.566Z,2.90
2022-08-23T08:38:48.179Z,2.80
2022-08-23T08:39:46.021Z,3.00
2022-08-23T08:40:45.602Z,2.90
2022-08-23T08:41:45.612Z,2.80
2022-08-23T08:42:45.624Z,3.00
2022-08-23T08:43:45.635Z,2.80
2022-08-23T08:44:45.650Z,3.10
2022-08-23T08:45:56.107Z,3.10
2022-08-23T08:46:45.750Z,3.00
2022-08-23T08:47:45.686Z,3.00
2022-08-23T08:48:45.693Z,3.00
2022-08-23T08:49:45.706Z,2.80
2022-08-23T08:50:45.720Z,2.90
2022-08-23T08:51:45.729Z,3.00
2022-08-23T08:52:45.742Z,3.20
2022-08-23T08:53:45.753Z,3.20
2022-08-23T08:54:48.204Z,3.00
2022-08-23T08:55:45.775Z,3.20
2022-08-23T08:56:45.788Z,3.40
2022-08-23T08:57:45.799Z,3.10
2022-08-23T08:58:45.811Z,3.10
2022-08-23T08:59:46.225Z,3.10
2022-08-23T09:00:46.404Z,3.10
2022-08-23T09:01:45.905Z,3.10
2022-08-23T09:02:45.945Z,3.40
2022-08-23T09:03:46.221Z,3.00
2022-08-23T09:04:45.880Z,3.30
2022-08-23T09:05:45.891Z,3.30
2022-08-23T09:06:45.904Z,3.10
2022-08-23T09:07:45.916Z,3.30
2022-08-23T09:08:45.931Z,3.20
2022-08-23T09:09:46.761Z,3.20
2022-08-23T09:10:45.951Z,3.20
2022-08-23T09:11:45.963Z,3.20
2022-08-23T09:12:45.972Z,3.40
2022-08-23T09:13:46.503Z,3.10
2022-08-23T09:14:45.998Z,3.30
2022-08-23T09:15:46.064Z,2.80
2022-08-23T09:16:46.020Z,3.20
2022-08-23T09:17:46.031Z,3.30
2022-08-23T09:18:46.042Z,3.20
2022-08-23T09:19:46.054Z,3.20
2022-08-23T09:20:46.068Z,3.40
2022-08-23T09:21:46.078Z,3.10
2022-08-23T09:22:46.092Z,3.20
2022-08-23T09:23:46.105Z,3.20
2022-08-23T09:24:46.115Z,3.30
2022-08-23T09:25:46.126Z,3.00
2022-08-23T09:26:46.138Z,3.10
2022-08-23T09:27:46.175Z,3.10
2022-08-23T09:28:46.161Z,3.40
2022-08-23T09:29:46.176Z,3.00
2022-08-23T09:30:46.183Z,3.00
2022-08-23T09:31:46.275Z,3.00
2022-08-23T09:32:46.205Z,3.10
2022-08-23T09:33:46.219Z,3.20
2022-08-23T09:34:46.233Z,3.10
2022-08-23T09:35:46.247Z,3.20
2022-08-23T09:36:46.254Z,3.20
2022-08-23T09:37:46.266Z,3.10
2022-08-23T09:38:46.279Z,3.40
2022-08-23T09:39:46.316Z,2.90
2022-08-23T09:40:46.298Z,3.20
2022-08-23T09:41:46.514Z,3.40
2022-08-23T09:42:46.323Z,3.20
2022-08-23T09:43:46.336Z,3.20
2022-08-23T09:44:46.348Z,3.10
2022-08-23T09:45:46.358Z,3.10
2022-08-23T09:46:46.369Z,3.20
2022-08-23T09:47:46.385Z,3.40
2022-08-23T09:48:46.392Z,3.00
2022-08-23T09:49:46.404Z,3.10
2022-08-23T09:50:46.417Z,3.10
2022-08-23T09:51:46.428Z,3.20
2022-08-23T09:52:46.441Z,3.10
2022-08-23T09:53:46.451Z,3.20
2022-08-23T09:54:47.655Z,3.10
2022-08-23T09:55:46.473Z,3.20
2022-08-23T09:56:46.486Z,3.30
2022-08-23T09:57:46.498Z,3.30
2022-08-23T09:58:46.509Z,3.30
2022-08-23T09:59:46.521Z,3.40
2022-08-23T10:00:46.534Z,3.30
2022-08-23T10:01:46.619Z,3.10
2022-08-23T10:02:46.557Z,3.30
2022-08-23T10:03:46.569Z,3.20
2022-08-23T10:04:46.609Z,3.30
2022-08-23T10:05:46.591Z,3.40
2022-08-23T10:06:46.602Z,3.30
2022-08-23T10:07:46.614Z,3.70
2022-08-23T10:08:46.625Z,3.20
2022-08-23T10:09:46.638Z,3.50
2022-08-23T10:10:49.085Z,3.50
2022-08-23T10:11:46.663Z,3.40
2022-08-23T10:12:46.672Z,3.30
2022-08-23T10:13:46.683Z,3.40
2022-08-23T10:14:46.696Z,3.40
2022-08-23T10:15:46.745Z,3.50
2022-08-23T10:16:46.718Z,3.60
2022-08-23T10:17:46.731Z,3.40
2022-08-23T10:18:46.744Z,3.70
2022-08-23T10:19:47.801Z,3.60
2022-08-23T10:20:46.765Z,3.90
2022-08-23T10:21:46.780Z,3.40
2022-08-23T10:22:46.790Z,3.70
2022-08-23T10:23:46.801Z,3.40
2022-08-23T10:24:46.811Z,3.50
2022-08-23T10:25:46.823Z,3.40
2022-08-23T10:26:48.050Z,3.50
2022-08-23T10:27:46.845Z,3.50
2022-08-23T10:28:46.860Z,3.60
2022-08-23T10:29:46.871Z,3.70
2022-08-23T10:30:46.916Z,3.60
2022-08-23T10:31:46.892Z,3.40
2022-08-23T10:32:46.908Z,3.50
2022-08-23T10:33:46.916Z,3.50
2022-08-23T10:34:50.411Z,3.40
2022-08-23T10:35:46.941Z,3.70
2022-08-23T10:36:46.950Z,3.60
2022-08-23T10:37:47.166Z,3.50
2022-08-23T10:38:46.977Z,3.40
2022-08-23T10:39:47.228Z,3.70
2022-08-23T10:40:46.996Z,3.70
2022-08-23T10:41:47.009Z,3.50
2022-08-23T10:42:47.020Z,3.60
2022-08-23T10:43:47.031Z,3.20
2022-08-23T10:44:47.045Z,3.60
2022-08-23T10:45:47.056Z,3.90
2022-08-23T10:46:47.106Z,3.50
2022-08-23T10:47:47.485Z,3.50
2022-08-23T10:48:47.089Z,3.10
2022-08-23T10:49:47.101Z,3.80
2022-08-23T10:50:53.424Z,3.90
2022-08-23T10:51:47.530Z,3.80
2022-08-23T10:52:47.340Z,3.80
2022-08-23T10:53:47.148Z,3.50
2022-08-23T10:54:47.363Z,3.60
2022-08-23T10:55:47.172Z,3.80
2022-08-23T10:56:48.823Z,3.60
2022-08-23T10:57:47.195Z,3.70
2022-08-23T10:58:47.543Z,3.60
2022-08-23T10:59:47.217Z,3.70
2022-08-23T11:00:47.228Z,3.70
2022-08-23T11:01:47.515Z,3.80
2022-08-23T11:02:47.288Z,3.50
2022-08-23T11:03:47.266Z,3.70
2022-08-23T11:04:47.278Z,3.90
2022-08-23T11:05:47.288Z,3.70
2022-08-23T11:06:47.315Z,3.60
2022-08-23T11:07:47.310Z,3.70
2022-08-23T11:08:48.057Z,3.60
2022-08-23T11:09:47.337Z,3.90
2022-08-23T11:10:56.086Z,3.60
2022-08-23T11:11:47.560Z,3.50
2022-08-23T11:12:47.368Z,3.50
2022-08-23T11:13:47.381Z,3.80
2022-08-23T11:14:47.393Z,3.60
2022-08-23T11:15:47.479Z,3.70
2022-08-23T11:16:47.415Z,3.60
2022-08-23T11:17:47.427Z,3.70
2022-08-23T11:18:47.843Z,3.60
2022-08-23T11:19:47.450Z,3.50
2022-08-23T11:20:47.462Z,3.90
2022-08-23T11:21:47.474Z,3.70
2022-08-23T11:22:47.486Z,3.50
2022-08-23T11:23:48.508Z,3.70
2022-08-23T11:24:47.511Z,3.60
2022-08-23T11:25:47.925Z,3.60
2022-08-23T11:26:47.534Z,3.70
2022-08-23T11:27:47.543Z,3.40
2022-08-23T11:28:47.554Z,3.50
2022-08-23T11:29:47.768Z,3.70
2022-08-23T11:30:47.643Z,3.60
2022-08-23T11:31:47.590Z,3.60
2022-08-23T11:32:47.604Z,3.80
2022-08-23T11:33:47.612Z,3.30
2022-08-23T11:34:47.627Z,3.60
2022-08-23T11:35:47.637Z,3.50
2022-08-23T11:36:47.647Z,3.40
2022-08-23T11:37:47.660Z,3.60
2022-08-23T11:38:47.675Z,3.50
2022-08-23T11:39:47.737Z,3.60
2022-08-23T11:40:47.694Z,3.50
2022-08-23T11:41:47.708Z,3.70
2022-08-23T11:42:47.718Z,3.40
2022-08-23T11:43:47.731Z,3.40
2022-08-23T11:44:47.747Z,3.40
2022-08-23T11:45:47.804Z,3.60
2022-08-23T11:46:47.764Z,3.30
2022-08-23T11:47:47.773Z,3.70
2022-08-23T11:48:47.787Z,3.60
2022-08-23T11:49:48.648Z,3.50
2022-08-23T11:50:47.811Z,3.30
2022-08-23T11:51:47.822Z,3.60
2022-08-23T11:52:47.836Z,3.20
2022-08-23T11:53:47.846Z,3.30
2022-08-23T11:54:47.857Z,3.30
2022-08-23T11:55:47.870Z,3.30
2022-08-23T11:56:47.881Z,3.50
2022-08-23T11:57:47.895Z,3.40
2022-08-23T11:58:47.905Z,3.40
2022-08-23T11:59:47.917Z,3.20
2022-08-23T12:00:47.926Z,3.20
2022-08-23T12:01:47.942Z,3.10
2022-08-23T12:02:48.118Z,3.20
2022-08-23T12:03:48.379Z,3.20
2022-08-23T12:04:47.973Z,3.20
2022-08-23T12:05:47.987Z,3.60
2022-08-23T12:06:50.839Z,3.20
2022-08-23T12:07:48.010Z,3.20
2022-08-23T12:08:48.022Z,3.10
2022-08-23T12:09:48.032Z,3.40
2022-08-23T12:10:48.044Z,3.60
2022-08-23T12:11:48.057Z,3.30
2022-08-23T12:12:48.069Z,3.10
2022-08-23T12:13:48.103Z,3.30
2022-08-23T12:14:48.091Z,3.20
2022-08-23T12:15:48.131Z,3.30
2022-08-23T12:16:50.090Z,3.10
2022-08-23T12:17:49.443Z,3.60
2022-08-23T12:18:48.137Z,3.30
2022-08-23T12:19:48.149Z,3.40
2022-08-23T12:20:48.489Z,3.50
2022-08-23T12:21:48.173Z,3.60
2022-08-23T12:22:48.184Z,3.30
2022-08-23T12:23:48.224Z,3.00
2022-08-23T12:24:52.353Z,3.10
2022-08-23T12:25:48.226Z,3.30
2022-08-23T12:26:48.232Z,3.20
2022-08-23T12:27:48.248Z,3.20
2022-08-23T12:28:48.254Z,3.10
2022-08-23T12:29:48.267Z,3.30
2022-08-23T12:30:48.321Z,3.10
2022-08-23T12:31:48.335Z,3.20
2022-08-23T12:32:48.300Z,3.20
2022-08-23T12:33:48.315Z,3.20
2022-08-23T12:34:48.325Z,3.30
2022-08-23T12:35:48.763Z,3.30
2022-08-23T12:36:48.350Z,3.30
2022-08-23T12:37:48.360Z,3.20
2022-08-23T12:38:48.775Z,3.20
2022-08-23T12:39:48.435Z,3.20
2022-08-23T12:40:48.394Z,3.30
2022-08-23T12:41:48.409Z,3.40
2022-08-23T12:42:48.418Z,3.10
2022-08-23T12:43:48.429Z,3.10
2022-08-23T12:44:48.443Z,3.00
2022-08-23T12:45:48.524Z,3.10
2022-08-23T12:46:48.795Z,3.10
2022-08-23T12:47:48.477Z,3.40
2022-08-23T12:48:48.489Z,3.10
2022-08-23T12:49:48.503Z,2.90
2022-08-23T12:50:48.516Z,3.10
2022-08-23T12:51:48.541Z,3.10
2022-08-23T12:52:48.748Z,3.20
2022-08-23T12:53:48.548Z,3.00
2022-08-23T12:54:48.761Z,3.20
2022-08-23T12:55:48.985Z,3.10
2022-08-23T12:56:48.583Z,3.20
2022-08-23T12:57:48.598Z,3.40
2022-08-23T12:58:49.213Z,3.20
2022-08-23T12:59:49.631Z,3.20
2022-08-23T13:00:49.237Z,3.00
2022-08-23T13:01:48.728Z,2.90
2022-08-23T13:02:48.715Z,3.10
2022-08-23T13:03:48.666Z,3.10
2022-08-23T13:04:48.678Z,3.10
2022-08-23T13:05:48.690Z,3.30
2022-08-23T13:06:49.577Z,2.90
2022-08-23T13:07:48.713Z,3.40
2022-08-23T13:08:48.724Z,3.20
2022-08-23T13:09:53.342Z,3.40
2022-08-23T13:10:49.356Z,3.30
2022-08-23T13:11:48.758Z,2.80
2022-08-23T13:12:48.771Z,3.20
2022-08-23T13:13:48.783Z,3.10
2022-08-23T13:14:48.803Z,3.20
2022-08-23T13:15:48.941Z,3.20
2022-08-23T13:16:48.821Z,3.50
2022-08-23T13:17:48.834Z,3.10
2022-08-23T13:18:48.844Z,3.20